Time;durP1;ratioP1;P1;durP2;ratioP2;P2;SDS_P1;SDS_P2;PMS_P1;PMS_P2;Temp;Humidity;BMP_temperature;BMP_pressure;BME280_temperature;BME280_humidity;BME280_pressure;Samples;Min_cycle;Max_cycle;Signal;HPM_P1;HPM_P2
2023/03/31 00:00:10;;;;;;;8.57;4.43;;;;;;;10.48;100.00;99340.44;5065364;28;20187;-59
2023/03/31 00:02:36;;;;;;;8.87;3.37;;;;;;;10.30;100.00;99329.59;5086765;28;20583;-59
2023/03/31 00:05:01;;;;;;;9.40;3.07;;;;;;;10.14;100.00;99328.94;5072636;28;20264;-59
2023/03/31 00:07:26;;;;;;;10.63;4.33;;;;;;;10.11;100.00;99331.72;5072487;28;20536;-61
2023/03/31 00:09:56;;;;;;;21.47;9.77;;;;;;;10.09;100.00;99326.66;5072684;28;20225;-59
2023/03/31 00:12:22;;;;;;;8.23;2.93;;;;;;;10.13;100.00;99319.59;5061159;28;20285;-64
2023/03/31 00:14:47;;;;;;;9.73;3.73;;;;;;;10.14;100.00;99323.81;5072518;28;20205;-59
2023/03/31 00:17:12;;;;;;;10.17;4.40;;;;;;;10.17;100.00;99326.16;5072684;28;20196;-59
2023/03/31 00:19:40;;;;;;;8.33;3.00;;;;;;;10.17;100.00;99329.56;5072511;28;20320;-59
2023/03/31 00:22:06;;;;;;;10.23;4.47;;;;;;;10.28;100.00;99307.47;5064012;28;20211;-60
2023/03/31 00:24:32;;;;;;;5.87;2.73;;;;;;;10.30;100.00;99314.16;5071123;28;20188;-59
2023/03/31 00:26:59;;;;;;;9.87;4.90;;;;;;;10.30;100.00;99311.59;5070891;28;20203;-60
2023/03/31 00:29:25;;;;;;;10.03;2.67;;;;;;;10.23;100.00;99305.19;5071200;28;20613;-60
2023/03/31 00:31:50;;;;;;;12.17;3.77;;;;;;;10.24;100.00;99299.16;5063919;28;20226;-59
2023/03/31 00:34:16;;;;;;;11.67;4.30;;;;;;;10.15;100.00;99297.19;5073378;28;20185;-60
2023/03/31 00:36:46;;;;;;;8.27;3.40;;;;;;;10.18;100.00;99292.69;5071845;28;20183;-59
2023/03/31 00:39:11;;;;;;;9.47;2.90;;;;;;;10.00;100.00;99297.25;5066373;28;20181;-59
2023/03/31 00:41:37;;;;;;;11.63;4.23;;;;;;;9.97;100.00;99294.06;5055386;28;20224;-59
2023/03/31 00:44:26;;;;;;;8.97;3.30;;;;;;;9.94;100.00;99287.38;5069771;28;20250;-61
2023/03/31 00:47:01;;;;;;;11.47;3.03;;;;;;;9.85;100.00;99280.28;5071917;28;20196;-59
2023/03/31 00:49:36;;;;;;;6.83;2.77;;;;;;;9.96;100.00;99259.03;5072126;28;20176;-59
2023/03/31 00:52:22;;;;;;;7.80;3.70;;;;;;;9.72;100.00;99261.44;5063049;28;20306;-58
2023/03/31 00:54:52;;;;;;;10.70;2.90;;;;;;;9.76;100.00;99266.28;5070750;28;20177;-59
2023/03/31 00:57:19;;;;;;;6.97;2.60;;;;;;;9.85;100.00;99257.97;5074629;28;20183;-59
2023/03/31 00:59:48;;;;;;;9.17;2.57;;;;;;;9.82;100.00;99252.22;5071634;28;20640;-59
2023/03/31 01:02:16;;;;;;;8.70;3.13;;;;;;;9.86;100.00;99248.53;5061775;28;20244;-61
2023/03/31 01:04:56;;;;;;;13.63;3.20;;;;;;;9.79;100.00;99239.59;5070268;28;20188;-60
2023/03/31 01:07:29;;;;;;;10.33;2.53;;;;;;;9.85;100.00;99241.75;5071572;28;20204;-60
2023/03/31 01:09:58;;;;;;;13.00;4.10;;;;;;;9.94;100.00;99237.75;5070190;28;20225;-60
2023/03/31 01:12:26;;;;;;;12.23;3.67;;;;;;;9.95;100.00;99236.84;5076410;28;20216;-61
2023/03/31 01:14:52;;;;;;;8.33;3.57;;;;;;;9.95;100.00;99226.56;5070449;28;20292;-60
2023/03/31 01:17:20;;;;;;;9.87;2.73;;;;;;;9.77;100.00;99228.59;5070201;28;20651;-59
2023/03/31 01:19:52;;;;;;;9.27;3.23;;;;;;;9.63;100.00;99232.06;5070416;28;20184;-60
2023/03/31 01:22:29;;;;;;;5.53;2.97;;;;;;;9.77;100.00;99211.41;5061059;28;20219;-59
2023/03/31 01:25:22;;;;;;;8.40;2.43;;;;;;;9.78;100.00;99213.06;5070024;28;20192;-62
2023/03/31 01:28:06;;;;;;;8.60;2.60;;;;;;;9.73;100.00;99209.16;5070310;28;20704;-59
2023/03/31 01:31:15;;;;;;;8.10;3.07;;;;;;;9.72;100.00;99189.53;5079441;28;20375;-60
2023/03/31 01:34:03;;;;;;;5.10;2.43;;;;;;;9.70;100.00;99192.22;5063758;28;20286;-60
2023/03/31 01:36:49;;;;;;;8.40;2.70;;;;;;;9.79;100.00;99185.66;5071021;28;20184;-61
2023/03/31 01:39:32;;;;;;;11.33;2.87;;;;;;;9.79;100.00;99181.31;5065099;28;20185;-60
2023/03/31 01:42:17;;;;;;;6.10;2.10;;;;;;;9.78;100.00;99173.72;5056848;28;20220;-60
2023/03/31 01:45:35;;;;;;;12.90;3.10;;;;;;;9.67;100.00;99159.03;5071295;28;20216;-60
2023/03/31 01:48:11;;;;;;;10.90;3.50;;;;;;;9.58;100.00;99159.63;5062398;28;20201;-59
2023/03/31 01:50:50;;;;;;;7.57;2.73;;;;;;;9.56;100.00;99154.59;5062522;28;20276;-59
2023/03/31 01:53:43;;;;;;;7.20;2.20;;;;;;;9.51;100.00;99148.94;5069388;28;20666;-62
2023/03/31 01:56:20;;;;;;;3.33;1.97;;;;;;;9.35;100.00;99133.69;5072095;28;20188;-60
2023/03/31 01:59:01;;;;;;;9.53;3.57;;;;;;;9.32;100.00;99128.78;5073842;28;20187;-59
2023/03/31 02:01:36;;;;;;;8.80;2.53;;;;;;;9.45;100.00;99126.22;5076309;28;20273;-60
2023/03/31 02:04:20;;;;;;;10.77;3.00;;;;;;;9.27;100.00;99123.94;5078493;28;20234;-61
2023/03/31 02:06:52;;;;;;;9.90;2.90;;;;;;;9.28;100.00;99120.47;5073522;28;20207;-59
2023/03/31 02:09:23;;;;;;;10.63;3.33;;;;;;;9.31;100.00;99117.69;5073590;28;20259;-60
2023/03/31 02:11:50;;;;;;;7.73;2.60;;;;;;;9.40;100.00;99112.88;5066634;28;20235;-60
2023/03/31 02:14:21;;;;;;;7.83;2.63;;;;;;;9.47;100.00;99111.56;5073070;28;20224;-60
2023/03/31 02:16:51;;;;;;;12.13;3.67;;;;;;;9.19;100.00;99108.22;5073637;28;20176;-59
2023/03/31 02:19:18;;;;;;;9.83;3.30;;;;;;;9.34;100.00;99102.09;5073509;28;20173;-59
2023/03/31 02:21:48;;;;;;;9.77;2.90;;;;;;;9.24;100.00;99093.38;5066560;28;20235;-60
2023/03/31 02:24:16;;;;;;;9.40;2.77;;;;;;;9.31;100.00;99089.44;5072884;28;20283;-62
2023/03/31 02:26:48;;;;;;;8.53;2.80;;;;;;;9.09;100.00;99086.66;5073102;28;20211;-60
2023/03/31 02:29:14;;;;;;;9.60;2.67;;;;;;;9.13;100.00;99090.66;5072979;28;20644;-60
2023/03/31 02:32:00;;;;;;;12.97;3.10;;;;;;;9.10;100.00;99085.72;5077093;28;20240;-59
2023/03/31 02:34:25;;;;;;;8.70;3.57;;;;;;;9.11;100.00;99084.81;5061653;28;20177;-60
2023/03/31 02:36:51;;;;;;;13.83;3.53;;;;;;;9.17;100.00;99089.53;5074383;28;20183;-60
2023/03/31 02:39:24;;;;;;;12.67;3.87;;;;;;;8.92;100.00;99078.31;5069119;28;20235;-60
2023/03/31 02:41:50;;;;;;;13.57;2.97;;;;;;;9.07;100.00;99079.06;5059274;28;20220;-60
2023/03/31 02:44:16;;;;;;;10.50;2.93;;;;;;;9.07;100.00;99073.94;5075663;28;20689;-60
2023/03/31 02:46:42;;;;;;;10.37;3.23;;;;;;;9.24;100.00;99066.88;5072815;28;20196;-60
2023/03/31 02:49:10;;;;;;;7.17;2.80;;;;;;;9.23;100.00;99055.78;5073307;28;20261;-60
2023/03/31 02:51:46;;;;;;;8.70;3.03;;;;;;;9.19;100.00;99042.34;5065573;28;20231;-60
2023/03/31 02:54:30;;;;;;;11.70;2.90;;;;;;;9.32;100.00;99031.25;5072384;28;20195;-59
2023/03/31 02:57:01;;;;;;;9.70;2.80;;;;;;;9.31;100.00;99022.72;5073760;28;20631;-59
2023/03/31 02:59:44;;;;;;;7.53;2.60;;;;;;;9.42;100.00;99008.38;5074294;28;20176;-59
2023/03/31 03:02:25;;;;;;;7.10;2.73;;;;;;;9.36;100.00;98992.47;5042328;28;20225;-59
2023/03/31 03:05:00;;;;;;;10.07;3.07;;;;;;;9.53;100.00;98970.78;5070155;28;20185;-58
2023/03/31 03:07:52;;;;;;;11.07;2.57;;;;;;;9.44;100.00;98968.84;5072303;28;20706;-59
2023/03/31 03:10:25;;;;;;;12.80;2.80;;;;;;;9.59;100.00;98955.88;5068549;28;20683;-58
2023/03/31 03:13:08;;;;;;;9.47;2.47;;;;;;;9.51;100.00;98953.84;5085730;28;20200;-59
2023/03/31 03:15:46;;;;;;;8.73;2.83;;;;;;;9.59;100.00;98948.16;5061836;28;20256;-60
2023/03/31 03:18:13;;;;;;;8.90;2.13;;;;;;;9.59;100.00;98949.00;5075325;28;20265;-59
2023/03/31 03:20:39;;;;;;;7.07;2.30;;;;;;;9.60;100.00;98955.78;5064990;28;20299;-59
2023/03/31 03:23:05;;;;;;;8.70;2.10;;;;;;;9.59;100.00;98963.56;5071898;28;20266;-59
2023/03/31 03:25:30;;;;;;;7.20;2.80;;;;;;;9.59;100.00;98961.00;5073486;28;20716;-59
2023/03/31 03:27:55;;;;;;;7.63;2.23;;;;;;;9.50;100.00;98926.50;5072261;28;20240;-58
2023/03/31 03:30:21;;;;;;;9.27;2.60;;;;;;;9.44;100.00;98926.94;5043756;28;20758;-72
2023/03/31 03:32:46;;;;;;;10.60;2.77;;;;;;;9.61;100.00;98918.91;5067039;28;20181;-58
2023/03/31 03:35:12;;;;;;;6.07;2.37;;;;;;;9.65;100.00;98914.34;5068616;28;20271;-60
2023/03/31 03:37:38;;;;;;;6.87;2.30;;;;;;;9.62;100.00;98915.41;5072288;28;20181;-59
2023/03/31 03:40:07;;;;;;;6.87;2.30;;;;;;;9.72;100.00;98914.78;5068822;28;20216;-60
2023/03/31 03:42:33;;;;;;;6.57;2.30;;;;;;;9.65;100.00;98915.19;5087493;28;20196;-59
2023/03/31 03:44:58;;;;;;;5.63;2.17;;;;;;;9.69;100.00;98915.81;5072165;28;20185;-59
2023/03/31 03:47:23;;;;;;;4.73;1.90;;;;;;;9.70;100.00;98889.22;5073218;28;20205;-63
2023/03/31 03:49:49;;;;;;;11.27;2.70;;;;;;;9.66;100.00;98875.75;5073339;28;20634;-60
2023/03/31 03:52:14;;;;;;;8.37;2.43;;;;;;;9.46;100.00;98846.31;5076636;28;20337;-59
2023/03/31 03:54:40;;;;;;;9.83;2.70;;;;;;;9.55;100.00;98849.19;5070149;28;20323;-60
2023/03/31 03:57:06;;;;;;;9.00;2.87;;;;;;;9.58;100.00;98860.06;5072017;28;20341;-59
2023/03/31 03:59:31;;;;;;;11.03;2.70;;;;;;;9.57;100.00;98861.00;5071296;28;20263;-59
2023/03/31 04:01:56;;;;;;;7.80;2.40;;;;;;;9.44;100.00;98855.06;5077262;28;20338;-62
2023/03/31 04:04:22;;;;;;;8.33;2.00;;;;;;;9.49;100.00;98858.16;5071883;28;20180;-60
2023/03/31 04:06:47;;;;;;;7.07;2.67;;;;;;;9.45;100.00;98843.88;5072561;28;20514;-60
2023/03/31 04:09:12;;;;;;;7.27;2.77;;;;;;;9.50;100.00;98855.47;5071709;28;20232;-59
2023/03/31 04:11:37;;;;;;;5.77;2.00;;;;;;;9.59;100.00;98866.84;5075152;28;20223;-60
2023/03/31 04:14:03;;;;;;;12.30;2.70;;;;;;;9.65;100.00;98857.88;5074157;28;20256;-59
2023/03/31 04:16:29;;;;;;;8.43;2.90;;;;;;;9.64;100.00;98857.06;5071401;28;20176;-59
2023/03/31 04:18:58;;;;;;;6.17;2.17;;;;;;;9.71;100.00;98854.88;5070960;28;20318;-60
2023/03/31 04:21:24;;;;;;;9.00;2.33;;;;;;;9.64;100.00;98848.56;5064376;28;20228;-63
2023/03/31 04:23:57;;;;;;;9.57;2.20;;;;;;;9.68;100.00;98845.63;5076215;28;20188;-60
2023/03/31 04:26:29;;;;;;;6.50;2.17;;;;;;;9.73;100.00;98842.75;5070407;28;20365;-60
2023/03/31 04:28:57;;;;;;;5.57;2.00;;;;;;;9.78;100.00;98834.72;5070181;28;20581;-58
2023/03/31 04:31:25;;;;;;;7.73;2.27;;;;;;;9.74;100.00;98821.28;5063753;28;20287;-60
2023/03/31 04:33:54;;;;;;;5.17;2.00;;;;;;;9.65;100.00;98799.66;5075202;28;20188;-60
2023/03/31 04:36:20;;;;;;;7.00;2.83;;;;;;;9.73;100.00;98788.03;5066536;28;20180;-60
2023/03/31 04:38:49;;;;;;;7.20;2.43;;;;;;;9.56;100.00;98799.50;5069924;28;20535;-60
2023/03/31 04:41:15;;;;;;;5.67;2.13;;;;;;;9.59;100.00;98794.13;5063909;28;20228;-59
2023/03/31 04:43:41;;;;;;;9.97;2.40;;;;;;;9.48;100.00;98798.28;5067193;28;20191;-63
2023/03/31 04:46:06;;;;;;;5.97;1.80;;;;;;;9.52;100.00;98801.44;5071135;28;20184;-60
2023/03/31 04:48:31;;;;;;;4.73;1.90;;;;;;;9.65;100.00;98812.50;5064264;28;20277;-59
2023/03/31 04:50:56;;;;;;;7.07;2.17;;;;;;;9.61;100.00;98811.09;5061265;28;20652;-60
2023/03/31 04:53:22;;;;;;;9.17;2.20;;;;;;;9.42;100.00;98803.84;5073363;28;20189;-60
2023/03/31 04:55:48;;;;;;;13.10;2.70;;;;;;;9.27;100.00;98794.69;5071625;28;20184;-60
2023/03/31 04:58:14;;;;;;;9.23;2.47;;;;;;;9.19;100.00;98802.88;5070727;28;20184;-59
2023/03/31 05:00:39;;;;;;;7.00;2.27;;;;;;;9.14;100.00;98803.22;5058952;28;20220;-60
2023/03/31 05:03:05;;;;;;;7.33;2.73;;;;;;;9.17;100.00;98817.59;5077656;28;20172;-62
2023/03/31 05:05:31;;;;;;;8.13;2.33;;;;;;;9.07;100.00;98816.56;5070360;28;20515;-59
2023/03/31 05:07:56;;;;;;;9.53;2.20;;;;;;;9.15;100.00;98806.59;5067854;28;20293;-63
2023/03/31 05:10:21;;;;;;;7.67;2.63;;;;;;;9.16;100.00;98810.81;5063473;28;20220;-66
2023/03/31 05:12:48;;;;;;;8.27;2.70;;;;;;;9.06;100.00;98800.34;5069894;28;20276;-60
2023/03/31 05:15:13;;;;;;;5.43;2.30;;;;;;;9.03;100.00;98805.72;5069969;28;20234;-60
2023/03/31 05:17:38;;;;;;;9.27;2.60;;;;;;;9.02;100.00;98788.69;5071234;28;20193;-60
2023/03/31 05:20:05;;;;;;;6.57;2.30;;;;;;;8.98;100.00;98784.66;5065498;28;20169;-59
2023/03/31 05:22:33;;;;;;;10.33;2.90;;;;;;;8.91;100.00;98783.47;5085236;28;20189;-59
2023/03/31 05:24:59;;;;;;;9.33;2.60;;;;;;;8.96;100.00;98766.03;5070033;28;20189;-60
2023/03/31 05:27:24;;;;;;;9.90;2.90;;;;;;;8.93;100.00;98763.66;5071161;28;20288;-60
2023/03/31 05:29:50;;;;;;;8.10;2.50;;;;;;;8.95;100.00;98754.94;5071216;28;20189;-60
2023/03/31 05:32:15;;;;;;;8.07;2.50;;;;;;;8.79;100.00;98755.16;5075392;28;20748;-60
2023/03/31 05:34:42;;;;;;;7.60;2.77;;;;;;;8.90;100.00;98749.31;5070090;28;20718;-59
2023/03/31 05:37:07;;;;;;;11.57;3.53;;;;;;;8.91;100.00;98747.56;5067537;28;20207;-60
2023/03/31 05:39:33;;;;;;;7.03;2.40;;;;;;;8.85;100.00;98734.22;5063286;28;20549;-60
2023/03/31 05:41:59;;;;;;;10.87;2.60;;;;;;;8.87;100.00;98734.94;5053087;28;20252;-68
2023/03/31 05:44:26;;;;;;;8.30;2.93;;;;;;;8.84;100.00;98719.78;5054623;28;20189;-61
2023/03/31 05:46:51;;;;;;;9.90;2.53;;;;;;;8.75;100.00;98724.72;5062491;28;20207;-59
2023/03/31 05:49:17;;;;;;;10.30;2.83;;;;;;;8.72;100.00;98720.63;5070383;28;20180;-61
2023/03/31 05:51:42;;;;;;;11.27;3.00;;;;;;;8.71;100.00;98704.41;5068799;28;20676;-61
2023/03/31 05:54:07;;;;;;;8.83;2.90;;;;;;;8.78;100.00;98691.19;5060132;28;20203;-62
2023/03/31 05:56:33;;;;;;;11.83;3.07;;;;;;;8.72;100.00;98679.63;5069113;28;20591;-59
2023/03/31 05:59:00;;;;;;;6.63;2.77;;;;;;;8.63;100.00;98690.50;5069456;28;20187;-60
2023/03/31 06:01:25;;;;;;;6.83;2.83;;;;;;;8.56;100.00;98682.44;5061098;28;20228;-60
2023/03/31 06:03:51;;;;;;;11.87;2.90;;;;;;;8.61;100.00;98666.72;5074282;28;20184;-60
2023/03/31 06:06:16;;;;;;;9.70;2.83;;;;;;;8.55;100.00;98655.97;5070699;28;20185;-60
2023/03/31 06:08:43;;;;;;;7.80;2.43;;;;;;;8.59;100.00;98650.63;5069498;28;20256;-59
2023/03/31 06:11:12;;;;;;;8.77;2.50;;;;;;;8.47;100.00;98642.03;5062761;28;20347;-61
2023/03/31 06:13:38;;;;;;;10.03;2.60;;;;;;;8.52;100.00;98630.56;5069333;28;20200;-60
2023/03/31 06:16:04;;;;;;;9.43;2.83;;;;;;;8.49;100.00;98624.81;5069479;28;20219;-63
2023/03/31 06:18:33;;;;;;;9.37;2.73;;;;;;;8.41;100.00;98615.09;5070689;28;20184;-62
2023/03/31 06:20:58;;;;;;;9.37;2.60;;;;;;;8.48;100.00;98612.94;5062161;28;20228;-60
2023/03/31 06:23:24;;;;;;;7.40;2.70;;;;;;;8.59;100.00;98610.44;5078771;28;20184;-60
2023/03/31 06:25:50;;;;;;;7.87;3.33;;;;;;;8.59;100.00;98620.69;5069448;28;20318;-60
2023/03/31 06:28:16;;;;;;;7.77;2.63;;;;;;;8.56;100.00;98605.53;5067091;28;20253;-60
2023/03/31 06:30:42;;;;;;;16.37;3.40;;;;;;;8.50;100.00;98588.03;5060920;28;20239;-59
2023/03/31 06:33:07;;;;;;;5.77;2.70;;;;;;;8.49;100.00;98591.50;5077976;28;20193;-59
2023/03/31 06:35:36;;;;;;;13.10;2.77;;;;;;;8.43;100.00;98582.47;5069963;28;20189;-61
2023/03/31 06:38:01;;;;;;;8.03;2.80;;;;;;;8.49;100.00;98581.25;5068390;28;20616;-60
2023/03/31 06:40:27;;;;;;;7.23;3.13;;;;;;;8.61;100.00;98575.28;5062175;28;20228;-61
2023/03/31 06:42:52;;;;;;;9.33;3.13;;;;;;;8.52;100.00;98569.06;5069175;28;20169;-66
2023/03/31 06:45:17;;;;;;;8.07;3.30;;;;;;;8.52;100.00;98570.78;5072718;28;20191;-61
2023/03/31 06:47:42;;;;;;;12.17;4.47;;;;;;;8.53;100.00;98562.16;5073367;28;20227;-60
2023/03/31 06:50:09;;;;;;;10.43;3.57;;;;;;;8.51;100.00;98559.72;5063007;28;20271;-61
2023/03/31 06:52:35;;;;;;;8.63;3.40;;;;;;;8.59;100.00;98550.69;5087190;28;20201;-62
2023/03/31 06:55:01;;;;;;;10.47;3.77;;;;;;;8.65;100.00;98552.81;5070025;28;20225;-61
2023/03/31 06:57:27;;;;;;;10.23;3.93;;;;;;;8.69;100.00;98549.09;5070756;28;20532;-65
2023/03/31 06:59:53;;;;;;;8.57;3.77;;;;;;;8.61;100.00;98549.63;5069634;28;20181;-61
2023/03/31 07:02:19;;;;;;;11.67;4.63;;;;;;;8.66;100.00;98559.56;5057724;28;20271;-60
2023/03/31 07:04:45;;;;;;;8.13;3.73;;;;;;;8.87;100.00;98558.03;5072409;28;20181;-61
2023/03/31 07:07:10;;;;;;;7.17;3.30;;;;;;;8.92;100.00;98573.06;5072527;28;20201;-61
2023/03/31 07:09:35;;;;;;;9.03;3.80;;;;;;;8.98;100.00;98587.19;5072501;28;20221;-60
2023/03/31 07:12:04;;;;;;;11.50;4.73;;;;;;;9.08;100.00;98592.47;5073905;27;20234;-61
2023/03/31 07:14:29;;;;;;;12.43;4.17;;;;;;;9.13;100.00;98629.69;5064215;28;20281;-63
2023/03/31 07:16:54;;;;;;;12.73;4.17;;;;;;;8.91;100.00;98609.09;5076700;28;20223;-61
2023/03/31 07:19:20;;;;;;;6.60;3.00;;;;;;;8.90;100.00;98561.31;5066633;28;20177;-61
2023/03/31 07:21:45;;;;;;;5.37;2.63;;;;;;;8.97;100.00;98541.97;5069567;28;20247;-60
2023/03/31 07:24:10;;;;;;;9.33;2.80;;;;;;;8.98;100.00;98549.56;5069364;28;20189;-62
2023/03/31 07:26:36;;;;;;;5.43;2.47;;;;;;;9.18;100.00;98562.69;5068274;28;20200;-61
2023/03/31 07:29:01;;;;;;;6.37;3.37;;;;;;;9.46;100.00;98574.25;5072853;28;20522;-61
2023/03/31 07:31:26;;;;;;;7.17;2.80;;;;;;;9.62;100.00;98580.81;5042282;28;20228;-60
2023/03/31 07:33:52;;;;;;;5.23;3.13;;;;;;;9.77;100.00;98573.72;5075519;28;20227;-61
2023/03/31 07:36:17;;;;;;;4.70;2.77;;;;;;;9.87;100.00;98561.00;5071863;28;20188;-61
2023/03/31 07:38:45;;;;;;;8.50;2.70;;;;;;;10.09;100.00;98557.59;5070781;28;20267;-61
2023/03/31 07:41:13;;;;;;;6.93;2.70;;;;;;;10.46;100.00;98559.91;5061305;28;20231;-64
2023/03/31 07:43:39;;;;;;;3.67;2.10;;;;;;;10.53;100.00;98555.94;5064016;28;20268;-61
2023/03/31 07:46:07;;;;;;;5.23;2.00;;;;;;;10.77;100.00;98555.72;5069348;28;20268;-60
2023/03/31 07:48:32;;;;;;;6.07;2.93;;;;;;;10.67;100.00;98549.69;5086751;28;20521;-63
2023/03/31 07:50:58;;;;;;;4.23;2.33;;;;;;;10.51;100.00;98557.78;5057761;28;20229;-60
2023/03/31 07:53:23;;;;;;;5.63;2.30;;;;;;;10.70;100.00;98566.63;5070562;28;20701;-61
2023/03/31 07:55:48;;;;;;;4.73;3.00;;;;;;;10.75;100.00;98559.34;5071742;28;20181;-60
2023/03/31 07:58:14;;;;;;;8.10;2.60;;;;;;;10.90;100.00;98554.72;5071845;28;20176;-62
2023/03/31 08:00:39;;;;;;;6.33;2.53;;;;;;;11.09;100.00;98539.44;5059817;28;20224;-61
2023/03/31 08:03:05;;;;;;;3.37;1.87;;;;;;;10.96;100.00;98539.63;5069069;28;20632;-59
2023/03/31 08:05:31;;;;;;;3.07;1.53;;;;;;;10.72;100.00;98539.84;5066619;28;20189;-60
2023/03/31 08:07:56;;;;;;;4.70;2.27;;;;;;;10.86;100.00;98541.28;5064402;28;20547;-60
2023/03/31 08:10:25;;;;;;;5.60;2.10;;;;;;;11.83;100.00;98545.34;5052689;28;20234;-61
2023/03/31 08:12:50;;;;;;;1.67;1.40;;;;;;;12.17;100.00;98545.09;5071673;28;20189;-60
2023/03/31 08:15:16;;;;;;;3.43;1.70;;;;;;;12.00;100.00;98550.88;5071674;28;20643;-61
2023/03/31 08:17:41;;;;;;;5.77;1.60;;;;;;;11.51;100.00;98546.31;5072498;28;20185;-60
2023/03/31 08:20:09;;;;;;;4.97;1.87;;;;;;;11.05;100.00;98547.53;5067895;28;20528;-61
2023/03/31 08:22:38;;;;;;;3.77;2.10;;;;;;;10.94;100.00;98540.66;5061944;28;20189;-63
2023/03/31 08:25:04;;;;;;;2.50;2.03;;;;;;;10.78;100.00;98533.41;5071013;28;20279;-60
2023/03/31 08:27:38;;;;;;;2.97;2.17;;;;;;;10.52;100.00;98520.88;5072310;28;20319;-61
2023/03/31 08:30:06;;;;;;;7.07;2.67;;;;;;;10.33;100.00;98517.16;5069765;28;20184;-61
2023/03/31 08:32:32;;;;;;;6.93;2.80;;;;;;;10.33;100.00;98509.44;5051103;28;20685;-60
2023/03/31 08:34:57;;;;;;;5.90;3.30;;;;;;;10.38;100.00;98516.81;5047163;28;20216;-61
2023/03/31 08:37:23;;;;;;;4.80;2.50;;;;;;;10.53;100.00;98517.34;5051754;28;20173;-61
2023/03/31 08:39:48;;;;;;;3.53;2.37;;;;;;;10.43;100.00;98513.88;5050420;28;20197;-63
2023/03/31 08:42:19;;;;;;;4.83;2.07;;;;;;;10.74;100.00;98509.69;5072493;28;20730;-62
2023/03/31 08:45:17;;;;;;;5.30;2.60;;;;;;;12.79;100.00;98510.53;5052106;28;20189;-61
2023/03/31 08:47:45;;;;;;;7.20;2.30;;;;;;;15.38;100.00;98487.13;5050535;28;20241;-60
2023/03/31 08:50:15;;;;;;;4.87;2.40;;;;;;;17.02;100.00;98475.50;5043923;28;20264;-60
2023/03/31 08:52:46;;;;;;;4.20;2.17;;;;;;;18.94;100.00;98475.13;5072908;28;20193;-60
2023/03/31 08:55:27;;;;;;;3.50;1.90;;;;;;;19.80;100.00;98475.44;5050168;28;20607;-61
2023/03/31 08:58:03;;;;;;;5.43;2.07;;;;;;;21.15;93.08;98463.59;5044210;28;20177;-62
2023/03/31 09:00:39;;;;;;;6.13;1.70;;;;;;;21.31;88.50;98475.56;5074446;28;20288;-63
2023/03/31 09:03:15;;;;;;;3.20;1.77;;;;;;;18.13;100.00;98478.97;5069756;28;20180;-64
2023/03/31 09:05:47;;;;;;;4.73;2.00;;;;;;;16.32;100.00;98482.75;5068567;28;20233;-61
2023/03/31 09:08:32;;;;;;;3.80;1.70;;;;;;;14.92;100.00;98475.22;5070440;28;20724;-61
2023/03/31 09:11:24;;;;;;;4.50;1.90;;;;;;;14.37;100.00;98476.19;5062595;28;20680;-61
2023/03/31 09:14:03;;;;;;;5.60;1.83;;;;;;;14.20;100.00;98485.56;5062280;28;20205;-62
2023/03/31 09:16:39;;;;;;;6.97;2.33;;;;;;;14.90;100.00;98486.69;5070148;28;20172;-62
2023/03/31 09:19:13;;;;;;;6.60;2.30;;;;;;;16.66;100.00;98483.59;5070065;28;20199;-63
2023/03/31 09:21:45;;;;;;;8.97;2.40;;;;;;;18.15;100.00;98481.41;5050308;28;20230;-62
2023/03/31 09:24:19;;;;;;;4.50;2.03;;;;;;;17.78;100.00;98488.88;5069109;28;20176;-62
2023/03/31 09:26:52;;;;;;;5.37;2.30;;;;;;;19.27;99.99;98475.59;5075758;28;20212;-62
2023/03/31 09:29:28;;;;;;;7.50;2.07;;;;;;;21.57;90.01;98486.19;5067461;28;20242;-61
2023/03/31 09:31:54;;;;;;;6.70;2.00;;;;;;;21.68;81.69;98474.38;5052547;28;20225;-67
2023/03/31 09:34:31;;;;;;;5.17;2.33;;;;;;;23.20;71.20;98473.91;5067163;28;20188;-62
2023/03/31 09:36:56;;;;;;;5.75;2.42;;;;;;;21.70;80.12;98476.78;5070269;28;20192;-62
2023/03/31 09:39:22;;;;;;;8.07;2.60;;;;;;;18.57;92.86;98466.28;5068414;28;20169;-61
2023/03/31 09:41:50;;;;;;;8.30;2.90;;;;;;;17.31;100.00;98461.13;5062369;28;20231;-61
2023/03/31 09:44:26;;;;;;;8.37;2.63;;;;;;;16.34;100.00;98454.06;5068049;28;20184;-60
2023/03/31 09:46:52;;;;;;;9.13;3.13;;;;;;;15.77;100.00;98453.75;5068574;28;20312;-60
2023/03/31 09:49:21;;;;;;;10.50;3.13;;;;;;;14.80;100.00;98446.16;5057732;28;20183;-60
2023/03/31 09:51:56;;;;;;;8.73;3.07;;;;;;;14.01;100.00;98440.78;5058273;28;20311;-60
2023/03/31 09:54:29;;;;;;;12.13;3.13;;;;;;;13.42;100.00;98434.31;5068343;28;20267;-62
2023/03/31 09:56:55;;;;;;;10.20;2.90;;;;;;;13.18;100.00;98435.59;5067587;28;20198;-62
2023/03/31 09:59:34;;;;;;;10.67;3.20;;;;;;;13.08;100.00;98433.06;5067634;28;20184;-61
2023/03/31 10:02:04;;;;;;;8.63;3.40;;;;;;;12.82;100.00;98461.25;5055639;28;20216;-63
2023/03/31 10:04:34;;;;;;;16.50;5.17;;;;;;;12.33;100.00;98472.41;5061795;28;20508;-63
2023/03/31 10:07:03;;;;;;;19.53;5.23;;;;;;;11.19;100.00;98497.50;5073766;28;20200;-62
2023/03/31 10:09:32;;;;;;;13.87;4.50;;;;;;;10.09;100.00;98526.78;5068893;28;20234;-59
2023/03/31 10:12:07;;;;;;;12.70;5.87;;;;;;;9.67;100.00;98535.09;5058892;28;20212;-60
2023/03/31 10:15:13;;;;;;;12.93;6.13;;;;;;;8.98;100.00;98538.47;5065568;28;20207;-60
2023/03/31 10:17:42;;;;;;;8.20;2.83;;;;;;;8.57;100.00;98540.53;5047605;28;20272;-61
2023/03/31 10:20:38;;;;;;;7.83;3.87;;;;;;;8.21;100.00;98517.38;5061503;28;20177;-59
2023/03/31 10:23:23;;;;;;;9.43;5.57;;;;;;;8.13;100.00;98488.91;5069310;28;20538;-59
2023/03/31 10:25:50;;;;;;;7.43;2.30;;;;;;;8.16;100.00;98481.03;5061589;28;20238;-59
2023/03/31 10:28:18;;;;;;;6.77;3.27;;;;;;;8.24;100.00;98465.91;5071802;28;20202;-59
2023/03/31 10:31:02;;;;;;;27.07;20.47;;;;;;;8.20;100.00;98463.69;5066765;28;20238;-59
2023/03/31 10:33:33;;;;;;;5.07;2.03;;;;;;;8.37;100.00;98435.13;5077976;28;20185;-60
2023/03/31 10:36:05;;;;;;;4.97;1.70;;;;;;;8.63;100.00;98434.97;5073071;28;20632;-59
2023/03/31 10:38:36;;;;;;;9.07;4.30;;;;;;;8.88;100.00;98431.44;5071744;28;20207;-59
2023/03/31 10:41:02;;;;;;;7.77;5.47;;;;;;;9.27;100.00;98435.47;5061819;28;20227;-60
2023/03/31 10:43:34;;;;;;;8.00;3.77;;;;;;;9.73;100.00;98436.25;5070622;28;20231;-62
2023/03/31 10:45:59;;;;;;;6.47;3.03;;;;;;;9.96;100.00;98430.13;5069926;28;20181;-59
2023/03/31 10:48:33;;;;;;;7.77;2.47;;;;;;;10.25;100.00;98424.41;5072128;28;20287;-61
2023/03/31 10:51:26;;;;;;;8.33;5.50;;;;;;;10.62;100.00;98426.63;5061525;28;20262;-60
2023/03/31 10:54:03;;;;;;;12.13;8.77;;;;;;;11.26;100.00;98421.41;5067030;28;20199;-60
2023/03/31 10:56:40;;;;;;;5.50;2.83;;;;;;;11.50;100.00;98417.69;5071174;28;20176;-60
2023/03/31 10:59:18;;;;;;;8.03;3.63;;;;;;;11.87;100.00;98414.50;5070955;28;20278;-61
2023/03/31 11:01:49;;;;;;;5.00;1.97;;;;;;;11.99;100.00;98421.22;5050094;28;20283;-61
2023/03/31 11:04:26;;;;;;;6.57;2.40;;;;;;;12.10;100.00;98410.78;5066595;28;20837;-59
2023/03/31 11:07:12;;;;;;;5.93;3.30;;;;;;;12.04;100.00;98403.56;5070662;28;20295;-59
2023/03/31 11:09:37;;;;;;;11.73;7.03;;;;;;;12.49;100.00;98406.56;5066386;28;20275;-60
2023/03/31 11:12:23;;;;;;;13.07;6.77;;;;;;;12.91;100.00;98411.38;5077964;28;20571;-61
2023/03/31 11:15:15;;;;;;;7.80;2.60;;;;;;;13.50;100.00;98401.66;5073825;28;20201;-60
2023/03/31 11:18:06;;;;;;;9.27;4.30;;;;;;;14.00;100.00;98394.41;5042246;28;20593;-60
2023/03/31 11:20:54;;;;;;;8.73;3.83;;;;;;;14.25;100.00;98400.63;5053182;28;20227;-60
2023/03/31 11:23:41;;;;;;;9.73;2.97;;;;;;;14.66;100.00;98389.78;5071992;28;20181;-64
2023/03/31 11:26:10;;;;;;;15.57;7.67;;;;;;;14.89;100.00;98394.47;5071858;28;20216;-61
2023/03/31 11:28:50;;;;;;;11.93;3.93;;;;;;;15.38;100.00;98380.91;5071538;28;20200;-61
2023/03/31 11:31:21;;;;;;;18.97;6.53;;;;;;;15.72;100.00;98385.22;5030705;28;20616;-60
2023/03/31 11:34:03;;;;;;;12.97;3.70;;;;;;;15.66;100.00;98384.06;5066670;28;20177;-61
2023/03/31 11:37:03;;;;;;;15.37;4.57;;;;;;;14.96;100.00;98378.16;5071873;28;20545;-60
2023/03/31 11:39:44;;;;;;;14.83;5.03;;;;;;;14.34;100.00;98378.22;5073225;28;20577;-61
2023/03/31 11:42:18;;;;;;;17.43;5.93;;;;;;;13.89;100.00;98379.91;5060639;28;20734;-64
2023/03/31 11:44:51;;;;;;;14.60;5.67;;;;;;;13.36;100.00;98373.72;5061730;28;20762;-62